createdAt,value
2018-06-16T00:01:41.890Z,11.70
2018-06-16T00:04:10.663Z,12.33
2018-06-16T00:06:39.422Z,13.17
2018-06-16T00:09:09.162Z,12.60
2018-06-16T00:11:38.266Z,13.60
2018-06-16T00:14:07.143Z,14.67
2018-06-16T00:16:35.904Z,15.50
2018-06-16T00:19:04.773Z,16.07
2018-06-16T00:21:33.562Z,17.40
2018-06-16T00:24:02.323Z,16.77
2018-06-16T00:26:31.098Z,16.83
2018-06-16T00:28:59.878Z,17.33
2018-06-16T00:31:28.625Z,18.03
2018-06-16T00:33:57.395Z,16.10
2018-06-16T00:36:26.154Z,15.87
2018-06-16T00:38:54.986Z,15.90
2018-06-16T00:41:23.782Z,16.77
2018-06-16T00:43:52.738Z,17.57
2018-06-16T00:46:21.502Z,16.20
2018-06-16T00:48:50.273Z,17.30
2018-06-16T00:51:19.070Z,17.53
2018-06-16T00:53:47.836Z,18.80
2018-06-16T00:56:16.657Z,17.40
2018-06-16T00:58:45.446Z,17.90
2018-06-16T01:01:14.255Z,17.77
2018-06-16T01:03:43.062Z,17.77
2018-06-16T01:06:11.831Z,17.57
2018-06-16T01:08:40.681Z,17.23
2018-06-16T01:11:09.442Z,18.70
2018-06-16T01:13:38.214Z,18.03
2018-06-16T01:16:07.025Z,19.60
2018-06-16T01:18:35.786Z,18.60
2018-06-16T01:21:05.450Z,18.73
2018-06-16T01:23:34.225Z,19.30
2018-06-16T01:26:02.996Z,20.07
2018-06-16T01:28:31.761Z,19.83
2018-06-16T01:31:00.573Z,19.80
2018-06-16T01:33:29.342Z,17.60
2018-06-16T01:35:58.110Z,17.73
2018-06-16T01:38:26.868Z,18.43
2018-06-16T01:40:55.640Z,18.57
2018-06-16T01:43:24.421Z,17.40
2018-06-16T01:45:53.224Z,17.47
2018-06-16T01:48:21.982Z,17.60
2018-06-16T01:50:50.753Z,17.27
2018-06-16T01:53:19.594Z,17.27
2018-06-16T01:55:48.350Z,17.80
2018-06-16T01:58:17.115Z,18.83
2018-06-16T02:00:45.878Z,18.10
2018-06-16T02:03:14.643Z,17.30
2018-06-16T02:05:43.410Z,16.90
2018-06-16T02:08:12.166Z,17.23
2018-06-16T02:10:40.938Z,15.97
2018-06-16T02:13:09.733Z,16.40
2018-06-16T02:15:38.531Z,14.57
2018-06-16T02:18:07.327Z,14.97
2018-06-16T02:20:36.089Z,14.77
2018-06-16T02:23:04.899Z,16.70
2018-06-16T02:25:33.798Z,15.37
2018-06-16T02:28:02.566Z,15.87
2018-06-16T02:30:31.334Z,13.93
2018-06-16T02:33:00.134Z,15.47
2018-06-16T02:35:29.739Z,16.20
2018-06-16T02:37:58.527Z,15.43
2018-06-16T02:40:27.306Z,14.93
2018-06-16T02:42:56.120Z,16.20
2018-06-16T02:45:24.878Z,15.47
2018-06-16T02:47:53.658Z,14.70
2018-06-16T02:50:22.550Z,14.27
2018-06-16T02:52:51.575Z,14.57
2018-06-16T02:55:20.352Z,14.63
2018-06-16T02:57:49.163Z,13.73
2018-06-16T03:00:17.942Z,14.40
2018-06-16T03:02:46.707Z,12.73
2018-06-16T03:05:15.554Z,13.50
2018-06-16T03:07:44.330Z,13.83
2018-06-16T03:10:13.123Z,14.40
2018-06-16T03:12:41.922Z,13.60
2018-06-16T03:15:10.728Z,12.57
2018-06-16T03:17:39.495Z,12.53
2018-06-16T03:20:08.346Z,11.73
2018-06-16T03:22:37.134Z,10.80
2018-06-16T03:25:05.922Z,11.03
2018-06-16T03:27:34.714Z,10.13
2018-06-16T03:30:03.494Z,10.07
2018-06-16T03:32:32.255Z,9.17
2018-06-16T03:35:01.022Z,9.40
2018-06-16T03:37:29.802Z,8.53
2018-06-16T03:39:58.550Z,7.13
2018-06-16T03:42:27.289Z,5.70
2018-06-16T03:44:56.096Z,6.60
2018-06-16T03:47:24.863Z,5.30
2018-06-16T03:49:53.665Z,4.40
2018-06-16T03:52:22.442Z,2.90
2018-06-16T03:54:51.204Z,2.10
2018-06-16T03:57:20.007Z,2.50
2018-06-16T03:59:48.790Z,2.53
2018-06-16T04:02:17.564Z,2.03
2018-06-16T04:04:46.330Z,2.20
2018-06-16T04:07:15.114Z,2.90
2018-06-16T04:09:43.895Z,2.70
2018-06-16T04:12:12.679Z,2.33
2018-06-16T04:14:41.444Z,3.20
2018-06-16T04:17:18.936Z,2.80
2018-06-16T04:19:49.372Z,3.20
2018-06-16T04:22:18.180Z,3.13
2018-06-16T04:24:46.966Z,2.50
2018-06-16T04:27:15.737Z,2.90
2018-06-16T04:29:44.499Z,3.13
2018-06-16T04:32:13.263Z,3.10
2018-06-16T04:34:41.653Z,3.13
2018-06-16T04:37:10.451Z,3.50
2018-06-16T04:39:39.198Z,2.77
2018-06-16T04:42:07.935Z,2.90
2018-06-16T04:44:36.706Z,2.73
2018-06-16T04:47:05.515Z,2.90
2018-06-16T04:49:34.277Z,2.17
2018-06-16T04:52:03.049Z,2.40
2018-06-16T04:54:31.813Z,3.23
2018-06-16T04:57:00.609Z,2.03
2018-06-16T04:59:29.421Z,2.37
2018-06-16T05:01:58.267Z,2.17
2018-06-16T05:04:27.087Z,2.67
2018-06-16T05:06:55.858Z,2.40
2018-06-16T05:09:24.614Z,2.23
2018-06-16T05:11:53.392Z,2.10
2018-06-16T05:14:22.154Z,2.07
2018-06-16T05:16:50.932Z,2.77
2018-06-16T05:19:19.702Z,2.80
2018-06-16T05:21:48.463Z,2.27
2018-06-16T05:24:17.205Z,2.33
2018-06-16T05:26:45.989Z,2.67
2018-06-16T05:29:14.794Z,2.03
2018-06-16T05:31:43.554Z,3.90
2018-06-16T05:34:12.346Z,2.30
2018-06-16T05:36:41.113Z,2.10
2018-06-16T05:39:10.757Z,2.00
2018-06-16T05:41:39.534Z,2.33
2018-06-16T05:44:08.309Z,2.10
2018-06-16T05:46:37.089Z,1.67
2018-06-16T05:49:06.126Z,2.20
2018-06-16T05:51:34.955Z,2.20
2018-06-16T05:54:03.763Z,2.10
2018-06-16T05:56:32.536Z,1.80
2018-06-16T05:59:01.306Z,1.80
2018-06-16T06:01:30.107Z,2.00
2018-06-16T06:03:58.954Z,2.00
2018-06-16T06:06:27.733Z,1.93
2018-06-16T06:08:56.523Z,1.90
2018-06-16T06:11:25.307Z,2.20
2018-06-16T06:13:54.602Z,2.63
2018-06-16T06:16:23.449Z,1.73
2018-06-16T06:18:52.218Z,2.23
2018-06-16T06:21:21.046Z,1.93
2018-06-16T06:23:49.829Z,2.00
2018-06-16T06:26:18.606Z,2.33
2018-06-16T06:28:47.382Z,1.87
2018-06-16T06:31:16.214Z,2.57
2018-06-16T06:33:45.090Z,2.00
2018-06-16T06:36:13.867Z,1.67
2018-06-16T06:38:43.625Z,1.63
2018-06-16T06:41:12.850Z,1.23
2018-06-16T06:43:41.612Z,1.50
2018-06-16T06:46:10.386Z,1.30
2018-06-16T06:48:39.141Z,1.40
2018-06-16T06:51:07.935Z,1.40
2018-06-16T06:53:36.722Z,1.37
2018-06-16T06:56:05.522Z,1.73
2018-06-16T06:58:34.403Z,1.70
2018-06-16T07:01:03.163Z,1.63
2018-06-16T07:03:31.946Z,2.20
2018-06-16T07:06:00.318Z,1.77
2018-06-16T07:08:31.990Z,2.17
2018-06-16T07:11:00.873Z,1.83
2018-06-16T07:13:29.674Z,2.10
2018-06-16T07:15:58.435Z,1.80
2018-06-16T07:18:27.234Z,1.80
2018-06-16T07:20:56.026Z,1.50
2018-06-16T07:23:24.782Z,1.90
2018-06-16T07:25:53.547Z,2.03
2018-06-16T07:28:22.310Z,1.87
2018-06-16T07:30:51.086Z,1.80
2018-06-16T07:33:19.858Z,2.13
2018-06-16T07:35:48.630Z,1.83
2018-06-16T07:38:17.398Z,1.70
2018-06-16T07:40:46.174Z,1.93
2018-06-16T07:43:14.954Z,1.90
2018-06-16T07:45:43.702Z,1.83
2018-06-16T07:48:12.486Z,1.73
2018-06-16T07:50:41.347Z,1.87
2018-06-16T07:53:10.150Z,1.53
2018-06-16T07:55:38.910Z,2.10
2018-06-16T07:58:07.706Z,1.60
2018-06-16T08:00:36.097Z,2.20
2018-06-16T08:03:04.866Z,1.93
2018-06-16T08:05:33.666Z,1.90
2018-06-16T08:08:02.480Z,2.07
2018-06-16T08:10:31.302Z,2.10
2018-06-16T08:13:00.088Z,2.60
2018-06-16T08:15:28.871Z,2.83
2018-06-16T08:17:57.663Z,2.23
2018-06-16T08:20:26.544Z,1.87
2018-06-16T08:22:55.386Z,2.33
2018-06-16T08:25:24.166Z,1.77
2018-06-16T08:27:52.526Z,1.83
2018-06-16T08:30:21.287Z,1.90
2018-06-16T08:32:50.060Z,2.23
2018-06-16T08:35:18.842Z,1.33
2018-06-16T08:37:47.655Z,1.80
2018-06-16T08:40:16.474Z,1.27
2018-06-16T08:42:45.229Z,1.53
2018-06-16T08:45:13.996Z,1.50
2018-06-16T08:47:42.798Z,1.67
2018-06-16T08:50:11.548Z,1.53
2018-06-16T08:52:40.322Z,1.27
2018-06-16T08:55:09.078Z,1.52
2018-06-16T08:57:37.874Z,1.70
2018-06-16T09:00:06.703Z,1.57
2018-06-16T09:02:35.579Z,2.40
2018-06-16T09:05:04.414Z,1.80
2018-06-16T09:07:33.234Z,1.70
2018-06-16T09:10:02.002Z,1.93
2018-06-16T09:12:30.763Z,2.17
2018-06-16T09:14:59.542Z,2.20
2018-06-16T09:17:28.327Z,2.10
2018-06-16T09:19:57.337Z,2.13
2018-06-16T09:22:26.116Z,2.53
2018-06-16T09:24:54.890Z,1.80
2018-06-16T09:27:23.914Z,1.60
2018-06-16T09:29:52.751Z,1.63
2018-06-16T09:32:21.546Z,1.57
2018-06-16T09:34:50.313Z,1.60
2018-06-16T09:37:19.090Z,1.80
2018-06-16T09:39:47.862Z,2.17
2018-06-16T09:42:16.628Z,2.37
2018-06-16T09:44:45.419Z,2.10
2018-06-16T09:47:20.606Z,1.90
2018-06-16T09:49:49.510Z,1.53
2018-06-16T09:52:18.282Z,2.27
2018-06-16T09:54:47.050Z,1.70
2018-06-16T09:57:15.851Z,1.63
2018-06-16T09:59:44.649Z,1.73
2018-06-16T10:02:13.433Z,2.00
2018-06-16T10:04:42.235Z,1.90
2018-06-16T10:07:11.030Z,1.47
2018-06-16T10:09:39.913Z,1.70
2018-06-16T10:12:08.721Z,1.37
2018-06-16T10:14:37.539Z,1.57
2018-06-16T10:17:06.422Z,1.37
2018-06-16T10:19:35.251Z,2.03
2018-06-16T10:22:04.030Z,1.23
2018-06-16T10:24:32.784Z,1.47
2018-06-16T10:27:01.580Z,1.27
2018-06-16T10:29:30.341Z,1.07
2018-06-16T10:31:59.126Z,1.13
2018-06-16T10:34:27.893Z,1.87
2018-06-16T10:36:56.686Z,1.70
2018-06-16T10:39:28.546Z,1.50
2018-06-16T10:41:57.315Z,1.10
2018-06-16T10:44:26.124Z,1.67
2018-06-16T10:46:54.950Z,1.43
2018-06-16T10:49:23.898Z,1.50
2018-06-16T10:51:52.734Z,1.73
2018-06-16T10:54:21.506Z,1.77
2018-06-16T10:56:50.270Z,1.77
2018-06-16T10:59:19.082Z,1.90
2018-06-16T11:01:47.846Z,1.40
2018-06-16T11:04:16.706Z,1.50
2018-06-16T11:06:45.482Z,1.33
2018-06-16T11:09:14.299Z,1.60
2018-06-16T11:11:43.083Z,1.23
2018-06-16T11:14:11.821Z,1.60
2018-06-16T11:16:40.555Z,1.50
2018-06-16T11:19:09.398Z,1.70
2018-06-16T11:21:38.198Z,1.20
2018-06-16T11:24:07.058Z,1.13
2018-06-16T11:26:35.819Z,1.47
2018-06-16T11:29:04.614Z,1.30
2018-06-16T11:31:33.374Z,1.60
2018-06-16T11:34:02.148Z,1.50
2018-06-16T11:36:30.928Z,1.57
2018-06-16T11:38:59.706Z,1.50
2018-06-16T11:41:29.032Z,1.53
2018-06-16T11:43:57.821Z,1.80
2018-06-16T11:46:26.556Z,1.30
2018-06-16T11:48:55.331Z,1.10
2018-06-16T11:51:24.134Z,1.00
2018-06-16T11:53:52.916Z,1.23
2018-06-16T11:56:21.690Z,1.00
2018-06-16T11:58:50.423Z,1.60
2018-06-16T12:01:19.194Z,1.30
2018-06-16T12:03:47.974Z,1.60
2018-06-16T12:06:16.854Z,1.50
2018-06-16T12:08:45.665Z,1.40
2018-06-16T12:11:14.455Z,1.47
2018-06-16T12:13:43.242Z,1.50
2018-06-16T12:16:12.046Z,1.23
2018-06-16T12:18:40.819Z,1.63
2018-06-16T12:21:09.222Z,0.97
2018-06-16T12:23:38.074Z,1.30
2018-06-16T12:26:06.924Z,1.53
2018-06-16T12:28:35.685Z,2.07
2018-06-16T12:31:04.526Z,1.30
2018-06-16T12:33:33.301Z,0.93
2018-06-16T12:36:02.082Z,1.50
2018-06-16T12:38:30.870Z,1.50
2018-06-16T12:40:59.604Z,1.20
2018-06-16T12:43:28.438Z,1.20
2018-06-16T12:45:57.213Z,1.00
2018-06-16T12:48:26.003Z,1.00
2018-06-16T12:50:54.930Z,1.10
2018-06-16T12:53:23.698Z,1.03
2018-06-16T12:55:52.470Z,1.70
2018-06-16T12:58:21.275Z,3.10
2018-06-16T13:00:50.083Z,1.10
2018-06-16T13:03:18.858Z,1.40
2018-06-16T13:05:47.625Z,1.10
2018-06-16T13:08:16.391Z,1.10
2018-06-16T13:10:45.178Z,0.97
2018-06-16T13:13:13.967Z,0.83
2018-06-16T13:15:42.772Z,1.17
2018-06-16T13:18:14.615Z,1.00
2018-06-16T13:20:43.441Z,0.90
2018-06-16T13:23:12.222Z,1.10
2018-06-16T13:25:41.069Z,1.27
2018-06-16T13:28:09.854Z,0.57
2018-06-16T13:30:38.602Z,0.65
2018-06-16T13:33:07.371Z,2.15
2018-06-16T13:35:36.446Z,0.95
2018-06-16T13:38:05.329Z,1.50
2018-06-16T13:40:34.106Z,0.95
2018-06-16T13:43:02.919Z,1.55
2018-06-16T13:45:31.715Z,1.10
2018-06-16T13:48:00.488Z,0.75
2018-06-16T13:50:29.296Z,0.80
2018-06-16T13:52:58.108Z,0.80
2018-06-16T13:55:26.886Z,1.07
2018-06-16T13:57:55.686Z,1.12
2018-06-16T14:00:24.514Z,1.20
2018-06-16T14:02:53.299Z,1.00
2018-06-16T14:05:22.102Z,1.12
2018-06-16T14:07:50.879Z,0.90
2018-06-16T14:10:19.638Z,0.90
2018-06-16T14:12:48.426Z,1.67
2018-06-16T14:15:17.226Z,1.52
2018-06-16T14:17:46.061Z,1.02
2018-06-16T14:20:14.805Z,1.12
2018-06-16T14:22:43.575Z,1.15
2018-06-16T14:25:12.356Z,1.22
2018-06-16T14:27:41.274Z,1.30
2018-06-16T14:30:10.066Z,1.30
2018-06-16T14:32:38.821Z,1.57
2018-06-16T14:35:07.602Z,1.10
2018-06-16T14:37:36.363Z,1.20
2018-06-16T14:40:05.235Z,1.62
2018-06-16T14:42:34.106Z,1.75
2018-06-16T14:45:02.946Z,1.25
2018-06-16T14:47:31.722Z,1.05
2018-06-16T14:50:00.618Z,1.57
2018-06-16T14:52:29.485Z,1.30
2018-06-16T14:54:58.295Z,1.45
2018-06-16T14:57:27.062Z,1.30
2018-06-16T14:59:55.834Z,1.10
2018-06-16T15:02:24.601Z,1.90
2018-06-16T15:04:53.394Z,0.98
2018-06-16T15:07:22.143Z,1.27
2018-06-16T15:09:50.916Z,1.35
2018-06-16T15:12:19.755Z,1.75
2018-06-16T15:14:48.518Z,1.45
2018-06-16T15:17:17.282Z,1.42
2018-06-16T15:19:46.106Z,1.05
2018-06-16T15:22:15.114Z,1.60
2018-06-16T15:24:43.918Z,1.35
2018-06-16T15:27:12.734Z,2.17
2018-06-16T15:29:41.506Z,1.45
2018-06-16T15:32:10.317Z,1.42
2018-06-16T15:34:39.130Z,1.70
2018-06-16T15:37:07.926Z,1.55
2018-06-16T15:39:36.703Z,2.02
2018-06-16T15:42:05.547Z,1.57
2018-06-16T15:44:34.362Z,1.30
2018-06-16T15:47:03.162Z,1.50
2018-06-16T15:49:31.942Z,1.25
2018-06-16T15:52:00.702Z,1.85
2018-06-16T15:54:29.478Z,1.60
2018-06-16T15:56:58.234Z,1.55
2018-06-16T15:59:27.002Z,1.17
2018-06-16T16:01:55.773Z,1.50
2018-06-16T16:04:24.537Z,1.25
2018-06-16T16:06:53.310Z,1.77
2018-06-16T16:09:22.118Z,1.40
2018-06-16T16:11:50.882Z,1.10
2018-06-16T16:14:19.681Z,1.50
2018-06-16T16:16:48.502Z,1.10
2018-06-16T16:19:17.294Z,1.55
2018-06-16T16:21:46.114Z,1.75
2018-06-16T16:24:14.887Z,1.87
2018-06-16T16:26:43.673Z,1.50
2018-06-16T16:29:12.521Z,1.35
2018-06-16T16:31:41.307Z,2.12
2018-06-16T16:34:10.074Z,1.45
2018-06-16T16:36:38.862Z,1.65
2018-06-16T16:39:08.779Z,1.40
2018-06-16T16:41:37.836Z,1.60
2018-06-16T16:44:06.618Z,1.60
2018-06-16T16:46:35.490Z,2.33
2018-06-16T16:49:04.318Z,2.60
2018-06-16T16:51:33.122Z,2.87
2018-06-16T16:54:01.940Z,2.92
2018-06-16T16:56:30.771Z,2.50
2018-06-16T16:58:59.606Z,1.60
2018-06-16T17:01:28.378Z,1.17
2018-06-16T17:03:57.166Z,1.52
2018-06-16T17:06:25.948Z,1.40
2018-06-16T17:08:54.769Z,1.85
2018-06-16T17:11:23.538Z,1.77
2018-06-16T17:13:52.312Z,1.90
2018-06-16T17:16:21.114Z,1.30
2018-06-16T17:18:49.933Z,1.42
2018-06-16T17:21:18.720Z,0.93
2018-06-16T17:23:47.550Z,0.82
2018-06-16T17:26:16.354Z,1.15
2018-06-16T17:28:45.111Z,1.10
2018-06-16T17:31:13.894Z,0.90
2018-06-16T17:33:42.688Z,0.95
2018-06-16T17:36:11.463Z,1.47
2018-06-16T17:38:40.245Z,1.95
2018-06-16T17:41:09.042Z,1.70
2018-06-16T17:43:37.871Z,1.50
2018-06-16T17:46:06.663Z,1.47
2018-06-16T17:48:35.484Z,1.93
2018-06-16T17:51:04.301Z,1.43
2018-06-16T17:53:33.061Z,1.20
2018-06-16T17:56:01.866Z,1.70
2018-06-16T17:58:30.634Z,1.60
2018-06-16T18:00:59.453Z,1.40
2018-06-16T18:03:28.202Z,1.40
2018-06-16T18:05:56.971Z,1.83
2018-06-16T18:08:25.742Z,1.77
2018-06-16T18:10:54.520Z,2.40
2018-06-16T18:13:23.341Z,2.80
2018-06-16T18:15:53.066Z,3.13
2018-06-16T18:18:21.822Z,3.47
2018-06-16T18:20:50.862Z,4.20
2018-06-16T18:23:19.661Z,3.63
2018-06-16T18:25:48.443Z,3.57
2018-06-16T18:28:17.247Z,4.53
2018-06-16T18:30:46.014Z,3.67
2018-06-16T18:33:14.786Z,4.07
2018-06-16T18:35:43.530Z,3.00
2018-06-16T18:38:12.306Z,3.87
2018-06-16T18:40:41.091Z,3.70
2018-06-16T18:43:09.939Z,3.43
2018-06-16T18:45:38.699Z,3.87
2018-06-16T18:48:07.478Z,3.87
2018-06-16T18:50:36.278Z,4.20
2018-06-16T18:53:05.042Z,3.47
2018-06-16T18:55:33.838Z,4.10
2018-06-16T18:58:02.665Z,4.47
2018-06-16T19:00:31.455Z,4.50
2018-06-16T19:03:00.247Z,4.50
2018-06-16T19:05:29.058Z,4.83
2018-06-16T19:07:57.860Z,4.40
2018-06-16T19:10:26.674Z,4.50
2018-06-16T19:12:55.514Z,4.30
2018-06-16T19:15:24.330Z,4.90
2018-06-16T19:17:53.176Z,4.77
2018-06-16T19:20:21.952Z,5.73
2018-06-16T19:22:50.723Z,4.97
2018-06-16T19:25:19.492Z,5.13
2018-06-16T19:27:48.294Z,5.70
2018-06-16T19:30:17.106Z,5.47
2018-06-16T19:32:45.882Z,5.80
2018-06-16T19:35:14.711Z,5.60
2018-06-16T19:37:43.506Z,6.00
2018-06-16T19:40:12.284Z,5.43
2018-06-16T19:42:41.014Z,5.70
2018-06-16T19:45:09.825Z,5.40
2018-06-16T19:47:38.726Z,6.10
2018-06-16T19:50:07.501Z,5.27
2018-06-16T19:52:36.295Z,6.07
2018-06-16T19:55:05.174Z,6.40
2018-06-16T19:57:33.942Z,5.33
2018-06-16T20:00:02.731Z,5.03
2018-06-16T20:02:31.510Z,5.60
2018-06-16T20:05:00.947Z,5.60
2018-06-16T20:07:29.699Z,5.70
2018-06-16T20:09:58.495Z,5.80
2018-06-16T20:12:27.519Z,5.57
2018-06-16T20:14:56.387Z,5.87
2018-06-16T20:17:25.251Z,5.80
2018-06-16T20:19:54.094Z,5.67
2018-06-16T20:22:22.883Z,5.97
2018-06-16T20:24:51.749Z,5.80
2018-06-16T20:27:20.534Z,6.10
2018-06-16T20:29:49.367Z,5.80
2018-06-16T20:32:18.190Z,6.17
2018-06-16T20:34:46.963Z,6.57
2018-06-16T20:37:15.802Z,5.77
2018-06-16T20:39:44.590Z,6.57
2018-06-16T20:42:13.354Z,6.70
2018-06-16T20:44:42.187Z,6.43
2018-06-16T20:47:10.962Z,6.70
2018-06-16T20:49:39.810Z,6.87
2018-06-16T20:52:08.592Z,6.43
2018-06-16T20:54:37.459Z,6.87
2018-06-16T20:57:06.247Z,6.80
2018-06-16T20:59:35.015Z,6.47
2018-06-16T21:02:03.854Z,6.53
2018-06-16T21:04:32.671Z,6.60
2018-06-16T21:07:01.450Z,7.77
2018-06-16T21:09:30.218Z,7.57
2018-06-16T21:11:58.995Z,7.13
2018-06-16T21:14:27.782Z,6.90
2018-06-16T21:16:56.595Z,7.57
2018-06-16T21:19:25.384Z,7.50
2018-06-16T21:21:57.758Z,6.90
2018-06-16T21:24:26.587Z,7.47
2018-06-16T21:26:55.366Z,7.90
2018-06-16T21:29:25.145Z,7.27
2018-06-16T21:31:53.912Z,7.63
2018-06-16T21:34:22.700Z,7.60
2018-06-16T21:36:51.477Z,8.30
2018-06-16T21:39:20.246Z,8.10
2018-06-16T21:41:49.014Z,8.50
2018-06-16T21:44:17.824Z,8.67
2018-06-16T21:46:46.594Z,8.93
2018-06-16T21:49:15.388Z,8.63
2018-06-16T21:51:44.171Z,9.03
2018-06-16T21:54:12.950Z,9.60
2018-06-16T21:56:41.805Z,9.10
2018-06-16T21:59:10.502Z,10.20
2018-06-16T22:01:39.318Z,10.47
2018-06-16T22:04:08.133Z,11.23
2018-06-16T22:06:36.910Z,9.87
2018-06-16T22:09:08.526Z,10.27
2018-06-16T22:11:37.358Z,10.20
2018-06-16T22:14:06.171Z,10.87
2018-06-16T22:16:35.026Z,11.53
2018-06-16T22:19:03.847Z,11.80
2018-06-16T22:21:32.674Z,11.57
2018-06-16T22:24:01.517Z,10.73
2018-06-16T22:26:30.382Z,12.00
2018-06-16T22:28:59.191Z,12.40
2018-06-16T22:31:27.994Z,11.40
2018-06-16T22:33:56.809Z,11.67
2018-06-16T22:36:25.610Z,11.67
2018-06-16T22:38:54.406Z,11.30
2018-06-16T22:41:23.175Z,13.43
2018-06-16T22:43:51.941Z,14.83
2018-06-16T22:46:20.734Z,15.37
2018-06-16T22:48:49.552Z,16.20
2018-06-16T22:51:18.357Z,18.30
2018-06-16T22:53:47.156Z,18.47
2018-06-16T22:56:15.946Z,18.07
2018-06-16T22:58:44.731Z,21.37
2018-06-16T23:01:13.514Z,19.87
2018-06-16T23:03:42.282Z,22.00
2018-06-16T23:06:11.018Z,21.23
2018-06-16T23:08:39.802Z,20.73
2018-06-16T23:11:08.605Z,20.30
2018-06-16T23:13:37.382Z,21.40
2018-06-16T23:16:06.178Z,18.70
2018-06-16T23:18:34.979Z,19.60
2018-06-16T23:21:03.884Z,18.47
2018-06-16T23:23:32.674Z,17.63
2018-06-16T23:26:01.458Z,16.77
2018-06-16T23:28:30.248Z,16.47
2018-06-16T23:30:59.093Z,17.07
2018-06-16T23:33:27.901Z,17.07
2018-06-16T23:35:56.647Z,17.20
2018-06-16T23:38:25.434Z,16.13
2018-06-16T23:40:54.210Z,15.70
2018-06-16T23:43:22.981Z,16.63
2018-06-16T23:45:51.766Z,15.90
2018-06-16T23:48:20.582Z,15.60
2018-06-16T23:50:49.389Z,15.30
2018-06-16T23:53:18.209Z,14.47
2018-06-16T23:55:47.050Z,14.20
2018-06-16T23:58:15.946Z,15.80
